createdAt,value
2022-10-09T00:00:50.148Z,3.15
2022-10-09T00:03:17.658Z,2.92
2022-10-09T00:05:44.919Z,2.72
2022-10-09T00:08:11.796Z,2.75
2022-10-09T00:10:42.503Z,3.13
2022-10-09T00:13:08.968Z,2.70
2022-10-09T00:15:44.092Z,2.63
2022-10-09T00:18:13.095Z,3.95
2022-10-09T00:20:42.152Z,4.00
2022-10-09T00:23:09.198Z,4.80
2022-10-09T00:25:36.675Z,5.25
2022-10-09T00:28:04.318Z,6.38
2022-10-09T00:30:31.384Z,6.63
2022-10-09T00:32:57.837Z,6.10
2022-10-09T00:35:24.316Z,11.93
2022-10-09T00:37:50.689Z,3.97
2022-10-09T00:40:17.320Z,4.00
2022-10-09T00:42:45.702Z,2.55
2022-10-09T00:45:21.198Z,2.60
2022-10-09T00:47:50.686Z,2.45
2022-10-09T00:50:26.669Z,2.47
2022-10-09T00:52:57.298Z,2.30
2022-10-09T00:55:25.107Z,2.70
2022-10-09T00:57:55.057Z,2.38
2022-10-09T01:00:22.155Z,2.20
2022-10-09T01:02:48.879Z,3.33
2022-10-09T01:05:16.115Z,5.35
2022-10-09T01:07:57.744Z,4.68
2022-10-09T01:10:50.303Z,4.25
2022-10-09T01:13:26.826Z,3.67
2022-10-09T01:16:02.917Z,2.60
2022-10-09T01:18:38.170Z,2.03
2022-10-09T01:21:20.663Z,2.10
2022-10-09T01:23:59.113Z,1.92
2022-10-09T01:26:53.561Z,2.78
2022-10-09T01:29:23.037Z,2.33
2022-10-09T01:31:51.808Z,2.40
2022-10-09T01:34:20.990Z,2.40
2022-10-09T01:36:48.004Z,2.47
2022-10-09T01:39:19.012Z,2.40
2022-10-09T01:41:48.030Z,2.10
2022-10-09T01:44:18.756Z,2.17
2022-10-09T01:46:45.918Z,2.90
2022-10-09T01:49:40.015Z,2.63
2022-10-09T01:52:25.847Z,5.07
2022-10-09T01:55:06.375Z,7.10
2022-10-09T01:57:43.844Z,7.32
2022-10-09T02:00:12.261Z,7.82
2022-10-09T02:02:40.310Z,8.05
2022-10-09T02:05:09.527Z,7.28
2022-10-09T02:07:37.027Z,7.03
2022-10-09T02:10:05.940Z,5.80
2022-10-09T02:12:37.168Z,6.32
2022-10-09T02:15:04.679Z,6.18
2022-10-09T02:17:36.737Z,6.15
2022-10-09T02:20:12.621Z,4.85
2022-10-09T02:22:39.045Z,4.35
2022-10-09T02:25:06.697Z,3.85
2022-10-09T02:27:34.193Z,3.65
2022-10-09T02:30:01.406Z,3.53
2022-10-09T02:32:28.934Z,3.70
2022-10-09T02:34:55.384Z,4.20
2022-10-09T02:37:21.807Z,5.65
2022-10-09T02:39:48.341Z,4.10
2022-10-09T02:42:14.726Z,4.32
2022-10-09T02:44:41.138Z,5.25
2022-10-09T02:47:07.531Z,4.50
2022-10-09T02:49:34.062Z,3.22
2022-10-09T02:52:00.480Z,2.72
2022-10-09T02:54:26.913Z,3.13
2022-10-09T02:56:53.400Z,3.10
2022-10-09T02:59:19.794Z,3.58
2022-10-09T03:01:46.378Z,4.32
2022-10-09T03:04:12.908Z,4.70
2022-10-09T03:06:39.364Z,4.82
2022-10-09T03:09:05.965Z,6.53
2022-10-09T03:11:32.415Z,4.57
2022-10-09T03:13:58.850Z,4.25
2022-10-09T03:16:26.678Z,4.97
2022-10-09T03:18:54.055Z,4.57
2022-10-09T03:21:23.339Z,4.53
2022-10-09T03:23:50.773Z,3.95
2022-10-09T03:26:20.592Z,3.58
2022-10-09T03:28:48.875Z,4.75
2022-10-09T03:31:33.389Z,3.97
2022-10-09T03:34:03.599Z,4.18
2022-10-09T03:36:30.061Z,3.85
2022-10-09T03:38:56.445Z,4.40
2022-10-09T03:41:23.010Z,4.57
2022-10-09T03:43:49.449Z,4.00
2022-10-09T03:46:15.971Z,3.58
2022-10-09T03:48:42.374Z,3.78
2022-10-09T03:51:08.811Z,4.57
2022-10-09T03:53:35.497Z,4.05
2022-10-09T03:56:01.997Z,4.07
2022-10-09T03:58:28.407Z,4.22
2022-10-09T04:00:54.955Z,4.30
2022-10-09T04:03:21.682Z,3.85
2022-10-09T04:05:48.104Z,4.47
2022-10-09T04:08:14.565Z,4.22
2022-10-09T04:10:41.125Z,4.72
2022-10-09T04:13:07.564Z,5.80
2022-10-09T04:15:35.234Z,5.72
2022-10-09T04:18:01.664Z,6.72
2022-10-09T04:20:28.097Z,6.35
2022-10-09T04:22:54.496Z,7.18
2022-10-09T04:25:21.069Z,7.40
2022-10-09T04:27:47.667Z,7.32
2022-10-09T04:30:14.272Z,6.72
2022-10-09T04:32:40.632Z,6.75
2022-10-09T04:35:07.456Z,5.78
2022-10-09T04:37:35.485Z,8.93
2022-10-09T04:40:01.881Z,8.07
2022-10-09T04:42:28.247Z,6.90
2022-10-09T04:44:54.626Z,7.68
2022-10-09T04:47:21.049Z,9.00
2022-10-09T04:49:47.511Z,9.32
2022-10-09T04:52:13.899Z,9.07
2022-10-09T04:54:40.432Z,5.30
2022-10-09T04:57:06.812Z,5.15
2022-10-09T04:59:33.237Z,5.57
2022-10-09T05:01:59.669Z,5.53
2022-10-09T05:04:26.187Z,4.70
2022-10-09T05:06:52.566Z,4.57
2022-10-09T05:09:19.054Z,5.05
2022-10-09T05:11:45.502Z,4.28
2022-10-09T05:14:11.978Z,4.40
2022-10-09T05:17:08.267Z,4.70
2022-10-09T05:19:24.816Z,4.63
2022-10-09T05:21:51.192Z,4.30
2022-10-09T05:24:17.616Z,4.85
2022-10-09T05:26:43.992Z,5.10
2022-10-09T05:29:10.453Z,4.03
2022-10-09T05:31:37.615Z,4.00
2022-10-09T05:34:04.576Z,4.13
2022-10-09T05:36:31.095Z,5.60
2022-10-09T05:38:57.929Z,5.13
2022-10-09T05:41:24.326Z,4.70
2022-10-09T05:43:50.841Z,5.38
2022-10-09T05:46:23.714Z,4.55
2022-10-09T05:49:00.671Z,4.88
2022-10-09T05:51:30.359Z,4.68
2022-10-09T05:53:57.718Z,6.88
2022-10-09T05:56:29.767Z,6.90
2022-10-09T05:58:58.666Z,5.95
2022-10-09T06:01:27.873Z,5.97
2022-10-09T06:03:56.925Z,6.03
2022-10-09T06:06:26.734Z,5.75
2022-10-09T06:08:53.864Z,5.72
2022-10-09T06:11:31.576Z,5.78
2022-10-09T06:14:00.099Z,6.40
2022-10-09T06:16:29.256Z,6.00
2022-10-09T06:18:56.810Z,5.55
2022-10-09T06:21:23.786Z,5.90
2022-10-09T06:24:01.195Z,6.53
2022-10-09T06:26:29.551Z,6.53
2022-10-09T06:28:57.263Z,5.63
2022-10-09T06:31:26.201Z,5.88
2022-10-09T06:33:53.892Z,6.65
2022-10-09T06:36:25.022Z,5.22
2022-10-09T06:38:52.412Z,5.70
2022-10-09T06:41:21.762Z,6.05
2022-10-09T06:43:56.300Z,5.82
2022-10-09T06:46:25.190Z,6.45
2022-10-09T06:48:52.191Z,5.57
2022-10-09T06:51:20.367Z,5.53
2022-10-09T06:53:49.175Z,6.50
2022-10-09T06:56:17.017Z,6.82
2022-10-09T06:58:44.485Z,6.13
2022-10-09T07:01:16.778Z,6.07
2022-10-09T07:03:46.647Z,5.57
2022-10-09T07:06:19.617Z,5.90
2022-10-09T07:08:48.417Z,5.28
2022-10-09T07:11:16.649Z,7.10
2022-10-09T07:13:45.043Z,5.18
2022-10-09T07:16:11.622Z,6.00
2022-10-09T07:18:38.466Z,6.43
2022-10-09T07:21:08.289Z,9.23
2022-10-09T07:23:36.202Z,6.03
2022-10-09T07:26:13.266Z,6.15
2022-10-09T07:28:41.160Z,5.60
2022-10-09T07:31:08.040Z,6.15
2022-10-09T07:33:34.771Z,15.63
2022-10-09T07:36:02.879Z,8.45
2022-10-09T07:38:29.375Z,16.10
2022-10-09T07:41:00.625Z,8.52
2022-10-09T07:43:27.082Z,9.25
2022-10-09T07:45:53.519Z,5.43
2022-10-09T07:48:19.921Z,14.10
2022-10-09T07:50:46.277Z,10.18
2022-10-09T07:53:12.643Z,6.00
2022-10-09T07:55:45.399Z,8.05
2022-10-09T07:58:11.970Z,5.37
2022-10-09T08:00:38.490Z,6.93
2022-10-09T08:03:04.940Z,5.50
2022-10-09T08:05:31.374Z,8.98
2022-10-09T08:07:57.870Z,5.35
2022-10-09T08:10:24.418Z,5.82
2022-10-09T08:12:51.532Z,5.40
2022-10-09T08:15:18.188Z,5.03
2022-10-09T08:17:44.571Z,5.05
2022-10-09T08:20:10.993Z,5.32
2022-10-09T08:22:37.384Z,4.97
2022-10-09T08:25:04.185Z,4.70
2022-10-09T08:27:30.611Z,4.93
2022-10-09T08:29:57.034Z,4.45
2022-10-09T08:32:23.479Z,4.55
2022-10-09T08:34:49.903Z,7.50
2022-10-09T08:37:16.654Z,5.30
2022-10-09T08:39:43.079Z,4.57
2022-10-09T08:42:24.551Z,5.60
2022-10-09T08:44:51.059Z,6.38
2022-10-09T08:47:17.387Z,5.07
2022-10-09T08:49:51.518Z,6.20
2022-10-09T08:52:26.932Z,5.18
2022-10-09T08:54:58.278Z,4.85
2022-10-09T08:57:29.506Z,5.18
2022-10-09T08:59:56.405Z,4.70
2022-10-09T09:02:41.089Z,4.28
2022-10-09T09:05:21.615Z,5.35
2022-10-09T09:08:05.445Z,6.63
2022-10-09T09:13:17.996Z,5.20
2022-10-09T09:15:55.636Z,4.88
2022-10-09T09:18:58.905Z,4.32
2022-10-09T09:21:49.632Z,4.73
2022-10-09T09:24:20.836Z,4.38
2022-10-09T09:26:51.862Z,5.00
2022-10-09T09:29:24.399Z,4.95
2022-10-09T09:36:16.654Z,4.55
2022-10-09T09:39:02.681Z,4.53
2022-10-09T09:41:29.645Z,3.58
2022-10-09T09:43:56.073Z,2.55
2022-10-09T09:46:27.294Z,2.50
2022-10-09T09:48:53.750Z,2.78
2022-10-09T09:51:30.202Z,3.00
2022-10-09T09:54:00.320Z,2.63
2022-10-09T09:57:10.298Z,2.20
2022-10-09T09:59:26.648Z,2.45
2022-10-09T10:02:01.769Z,2.10
2022-10-09T10:04:28.543Z,1.95
2022-10-09T10:06:55.472Z,2.17
2022-10-09T10:09:22.112Z,2.15
2022-10-09T10:12:00.890Z,2.85
2022-10-09T10:14:28.272Z,2.35
2022-10-09T10:16:57.165Z,2.95
2022-10-09T10:19:29.502Z,2.83
2022-10-09T10:22:05.602Z,2.38
2022-10-09T10:24:43.513Z,2.20
2022-10-09T10:27:34.963Z,2.13
2022-10-09T10:30:05.209Z,2.13
2022-10-09T10:32:36.119Z,2.42
2022-10-09T10:35:09.738Z,2.20
2022-10-09T10:37:54.283Z,2.20
2022-10-09T10:40:20.685Z,2.22
2022-10-09T10:43:06.365Z,2.05
2022-10-09T10:45:41.241Z,2.35
2022-10-09T10:48:22.246Z,2.03
2022-10-09T10:51:23.888Z,1.88
2022-10-09T10:54:05.436Z,2.10
2022-10-09T10:56:38.542Z,1.73
2022-10-09T10:59:35.829Z,1.73
2022-10-09T11:02:32.658Z,1.35
2022-10-09T11:05:08.491Z,1.90
2022-10-09T11:07:44.910Z,1.48
2022-10-09T11:10:17.647Z,1.50
2022-10-09T11:12:58.080Z,1.27
2022-10-09T11:15:37.566Z,1.60
2022-10-09T11:18:18.909Z,1.67
2022-10-09T11:21:00.659Z,2.15
2022-10-09T11:23:38.496Z,1.90
2022-10-09T11:26:18.580Z,2.10
2022-10-09T11:29:13.188Z,1.58
2022-10-09T11:31:46.192Z,1.35
2022-10-09T11:34:20.552Z,1.15
2022-10-09T11:36:47.468Z,1.70
2022-10-09T11:39:20.162Z,1.40
2022-10-09T11:41:48.887Z,1.40
2022-10-09T11:44:27.430Z,1.30
2022-10-09T11:47:05.556Z,1.50
2022-10-09T11:49:55.311Z,1.40
2022-10-09T11:52:39.596Z,1.10
2022-10-09T11:55:18.140Z,1.40
2022-10-09T11:57:44.726Z,1.42
2022-10-09T12:00:11.732Z,1.45
2022-10-09T12:02:39.910Z,1.80
2022-10-09T12:05:18.015Z,1.50
2022-10-09T12:07:45.126Z,1.45
2022-10-09T12:10:33.581Z,1.42
2022-10-09T12:13:04.311Z,1.25
2022-10-09T12:15:58.888Z,1.48
2022-10-09T12:18:29.954Z,1.30
2022-10-09T12:20:59.311Z,1.50
2022-10-09T12:23:29.124Z,1.42
2022-10-09T12:25:56.714Z,1.88
2022-10-09T12:28:45.756Z,1.42
2022-10-09T12:31:34.798Z,1.30
2022-10-09T12:34:23.147Z,1.50
2022-10-09T12:36:49.585Z,1.40
2022-10-09T12:39:24.154Z,1.13
2022-10-09T12:41:55.423Z,1.17
2022-10-09T12:44:39.749Z,1.25
2022-10-09T12:47:09.354Z,1.27
2022-10-09T12:49:36.343Z,1.17
2022-10-09T12:52:03.238Z,1.10
2022-10-09T12:54:31.259Z,12.43
2022-10-09T12:56:59.660Z,4.45
2022-10-09T12:59:27.846Z,1.88
2022-10-09T13:01:58.296Z,1.35
2022-10-09T13:04:31.661Z,1.48
2022-10-09T13:07:02.801Z,1.42
2022-10-09T13:09:37.199Z,1.23
2022-10-09T13:12:16.203Z,1.40
2022-10-09T13:14:59.622Z,1.02
2022-10-09T13:20:24.299Z,0.93
2022-10-09T13:23:02.429Z,1.08
2022-10-09T13:25:34.885Z,1.20
2022-10-09T13:28:02.781Z,1.30
2022-10-09T13:30:29.365Z,1.10
2022-10-09T13:32:56.252Z,1.10
2022-10-09T13:35:22.912Z,1.10
2022-10-09T13:37:49.945Z,1.00
2022-10-09T13:40:20.519Z,1.50
2022-10-09T13:42:52.752Z,1.13
2022-10-09T13:45:19.410Z,1.50
2022-10-09T13:47:45.926Z,1.00
2022-10-09T13:50:16.266Z,0.98
2022-10-09T13:52:42.799Z,1.40
2022-10-09T13:55:09.974Z,1.00
2022-10-09T13:57:36.455Z,1.15
2022-10-09T14:00:04.075Z,1.10
2022-10-09T14:02:30.474Z,1.20
2022-10-09T14:04:56.890Z,1.20
2022-10-09T14:07:23.314Z,1.20
2022-10-09T14:09:49.717Z,1.15
2022-10-09T14:12:16.162Z,1.13
2022-10-09T14:14:42.603Z,1.45
2022-10-09T14:17:08.993Z,1.52
2022-10-09T14:19:35.620Z,1.25
2022-10-09T14:22:02.007Z,1.40
2022-10-09T14:24:28.563Z,1.17
2022-10-09T14:26:54.978Z,1.23
2022-10-09T14:29:21.477Z,1.20
2022-10-09T14:31:51.337Z,1.20
2022-10-09T14:34:17.794Z,1.33
2022-10-09T14:36:44.236Z,1.30
2022-10-09T14:39:10.818Z,1.23
2022-10-09T14:41:38.039Z,1.40
2022-10-09T14:44:05.514Z,1.52
2022-10-09T14:46:34.090Z,1.00
2022-10-09T14:49:07.202Z,1.60
2022-10-09T14:51:38.167Z,1.38
2022-10-09T14:54:06.301Z,1.70
2022-10-09T14:56:33.743Z,1.75
2022-10-09T14:59:01.012Z,1.27
2022-10-09T15:01:29.340Z,1.75
2022-10-09T15:03:55.883Z,1.30
2022-10-09T15:06:25.482Z,1.30
2022-10-09T15:08:56.626Z,1.65
2022-10-09T15:11:23.937Z,1.40
2022-10-09T15:13:50.379Z,1.52
2022-10-09T15:16:18.537Z,1.40
2022-10-09T15:18:46.268Z,1.70
2022-10-09T15:21:18.947Z,1.63
2022-10-09T15:23:46.521Z,1.50
2022-10-09T15:26:13.956Z,1.85
2022-10-09T15:28:42.997Z,1.73
2022-10-09T15:31:22.868Z,1.38
2022-10-09T15:33:54.162Z,1.30
2022-10-09T15:36:22.151Z,1.42
2022-10-09T15:38:48.965Z,1.30
2022-10-09T15:41:25.169Z,1.50
2022-10-09T15:43:54.614Z,1.77
2022-10-09T15:46:21.477Z,1.10
2022-10-09T15:48:48.404Z,1.48
2022-10-09T15:51:15.375Z,1.55
2022-10-09T15:53:44.065Z,19.40
2022-10-09T15:56:14.267Z,2.67
2022-10-09T15:58:41.291Z,5.07
2022-10-09T16:01:10.497Z,2.80
2022-10-09T16:03:38.055Z,1.30
2022-10-09T16:06:07.768Z,1.50
2022-10-09T16:08:35.137Z,1.50
2022-10-09T16:11:05.726Z,1.40
2022-10-09T16:13:35.067Z,1.60
2022-10-09T16:16:04.434Z,1.60
2022-10-09T16:18:31.062Z,1.70
2022-10-09T16:21:04.275Z,2.05
2022-10-09T16:23:30.731Z,2.10
2022-10-09T16:25:58.921Z,2.10
2022-10-09T16:28:26.385Z,2.20
2022-10-09T16:30:52.969Z,2.17
2022-10-09T16:33:19.440Z,1.88
2022-10-09T16:35:46.394Z,2.08
2022-10-09T16:38:13.967Z,2.15
2022-10-09T16:41:01.286Z,3.22
2022-10-09T16:43:28.882Z,3.10
2022-10-09T16:45:55.296Z,4.20
2022-10-09T16:48:21.880Z,4.55
2022-10-09T16:50:48.278Z,5.32
2022-10-09T16:53:14.847Z,5.53
2022-10-09T16:55:41.262Z,5.97
2022-10-09T16:58:07.683Z,6.15
2022-10-09T17:00:34.135Z,5.65
2022-10-09T17:03:00.661Z,5.22
2022-10-09T17:05:27.311Z,6.72
2022-10-09T17:07:54.464Z,6.28
2022-10-09T17:10:20.949Z,6.43
2022-10-09T17:12:47.391Z,5.95
2022-10-09T17:15:13.879Z,6.93
2022-10-09T17:17:41.003Z,6.47
2022-10-09T17:20:08.015Z,4.88
2022-10-09T17:22:34.446Z,5.97
2022-10-09T17:25:00.881Z,5.82
2022-10-09T17:27:27.300Z,4.57
2022-10-09T17:29:53.800Z,4.72
2022-10-09T17:32:20.223Z,4.70
2022-10-09T17:34:46.726Z,4.10
2022-10-09T17:37:13.507Z,5.10
2022-10-09T17:39:40.020Z,3.90
2022-10-09T17:42:06.568Z,4.40
2022-10-09T17:44:32.996Z,4.22
2022-10-09T17:47:00.845Z,3.35
2022-10-09T17:49:27.681Z,4.43
2022-10-09T17:51:54.528Z,4.53
2022-10-09T17:54:21.409Z,4.57
2022-10-09T17:56:47.845Z,4.32
2022-10-09T17:59:15.669Z,5.05
2022-10-09T18:01:42.636Z,4.70
2022-10-09T18:04:14.460Z,4.90
2022-10-09T18:06:40.886Z,5.30
2022-10-09T18:09:07.345Z,5.18
2022-10-09T18:11:33.853Z,5.03
2022-10-09T18:14:00.525Z,5.68
2022-10-09T18:16:36.439Z,5.10
2022-10-09T18:19:06.634Z,4.53
2022-10-09T18:21:34.376Z,5.57
2022-10-09T18:24:00.824Z,6.18
2022-10-09T18:26:27.371Z,11.52
2022-10-09T18:28:53.876Z,6.47
2022-10-09T18:31:23.590Z,5.05
2022-10-09T18:33:50.402Z,5.13
2022-10-09T18:36:20.013Z,5.25
2022-10-09T18:38:49.065Z,4.32
2022-10-09T18:41:16.863Z,5.13
2022-10-09T18:43:43.248Z,4.93
2022-10-09T18:46:10.058Z,5.55
2022-10-09T18:48:39.534Z,5.10
2022-10-09T18:51:10.282Z,4.93
2022-10-09T18:53:38.704Z,4.15
2022-10-09T18:56:07.043Z,3.83
2022-10-09T18:58:35.411Z,3.75
2022-10-09T19:01:06.639Z,3.70
2022-10-09T19:03:33.880Z,4.03
2022-10-09T19:06:00.306Z,3.17
2022-10-09T19:08:27.541Z,3.40
2022-10-09T19:10:54.079Z,2.83
2022-10-09T19:13:20.729Z,3.60
2022-10-09T19:15:54.546Z,4.70
2022-10-09T19:18:22.077Z,3.58
2022-10-09T19:20:49.389Z,3.90
2022-10-09T19:23:16.033Z,4.25
2022-10-09T19:25:47.569Z,3.92
2022-10-09T19:28:14.196Z,3.80
2022-10-09T19:30:41.976Z,3.88
2022-10-09T19:33:08.705Z,4.05
2022-10-09T19:35:35.607Z,4.75
2022-10-09T19:38:03.260Z,3.97
2022-10-09T19:40:29.914Z,4.38
2022-10-09T19:42:56.433Z,5.45
2022-10-09T19:45:23.003Z,4.75
2022-10-09T19:47:54.114Z,4.38
2022-10-09T19:50:21.248Z,4.32
2022-10-09T19:52:47.782Z,3.58
2022-10-09T19:55:14.567Z,4.57
2022-10-09T19:57:41.118Z,3.67
2022-10-09T20:00:09.022Z,3.55
2022-10-09T20:02:35.506Z,3.42
2022-10-09T20:05:01.948Z,3.97
2022-10-09T20:07:28.909Z,3.20
2022-10-09T20:09:55.432Z,3.30
2022-10-09T20:12:21.951Z,2.63
2022-10-09T20:14:48.551Z,3.65
2022-10-09T20:17:15.112Z,4.28
2022-10-09T20:19:45.517Z,2.95
2022-10-09T20:22:12.296Z,2.67
2022-10-09T20:24:38.898Z,3.65
2022-10-09T20:27:05.290Z,3.55
2022-10-09T20:29:31.723Z,3.22
2022-10-09T20:31:58.338Z,2.67
2022-10-09T20:34:26.970Z,3.28
2022-10-09T20:36:53.834Z,2.38
2022-10-09T20:39:21.497Z,3.20
2022-10-09T20:41:48.742Z,2.88
2022-10-09T20:44:15.190Z,2.67
2022-10-09T20:46:42.526Z,2.65
2022-10-09T20:49:12.433Z,2.70
2022-10-09T20:51:40.164Z,2.75
2022-10-09T20:54:08.608Z,2.72
2022-10-09T20:56:35.397Z,2.60
2022-10-09T20:59:02.999Z,2.45
2022-10-09T21:01:29.694Z,2.58
2022-10-09T21:03:57.677Z,1.90
2022-10-09T21:06:24.090Z,2.72
2022-10-09T21:08:50.888Z,2.58
2022-10-09T21:11:18.923Z,2.50
2022-10-09T21:13:46.349Z,2.58
2022-10-09T21:16:16.398Z,3.42
2022-10-09T21:18:42.842Z,2.72
2022-10-09T21:21:12.830Z,3.13
2022-10-09T21:23:40.064Z,3.42
2022-10-09T21:26:12.051Z,2.95
2022-10-09T21:28:38.969Z,3.45
2022-10-09T21:31:13.317Z,3.90
2022-10-09T21:33:39.915Z,5.18
2022-10-09T21:36:22.655Z,5.68
2022-10-09T21:38:49.047Z,5.72
2022-10-09T21:41:15.545Z,3.20
2022-10-09T21:43:42.014Z,3.10
2022-10-09T21:46:08.422Z,2.55
2022-10-09T21:48:34.830Z,3.47
2022-10-09T21:51:01.380Z,2.60
2022-10-09T21:53:27.791Z,2.28
2022-10-09T21:55:54.166Z,3.05
2022-10-09T21:58:20.760Z,3.03
2022-10-09T22:00:55.465Z,2.63
2022-10-09T22:03:24.284Z,2.45
2022-10-09T22:05:50.682Z,2.70
2022-10-09T22:08:17.304Z,2.70
2022-10-09T22:10:43.688Z,3.10
2022-10-09T22:13:10.080Z,2.70
2022-10-09T22:15:41.231Z,2.08
2022-10-09T22:18:07.714Z,2.20
2022-10-09T22:20:39.030Z,3.08
2022-10-09T22:23:06.874Z,2.38
2022-10-09T22:25:33.333Z,2.03
2022-10-09T22:27:59.959Z,2.38
2022-10-09T22:30:26.616Z,2.28
2022-10-09T22:32:54.149Z,2.30
2022-10-09T22:35:21.377Z,2.22
2022-10-09T22:37:47.856Z,2.38
2022-10-09T22:40:14.297Z,1.70
2022-10-09T22:42:40.705Z,2.13
2022-10-09T22:45:08.011Z,2.70
2022-10-09T22:47:34.415Z,2.38
2022-10-09T22:50:00.922Z,2.10
2022-10-09T22:52:28.464Z,1.88
2022-10-09T22:54:55.638Z,1.92
2022-10-09T22:57:22.090Z,2.20
2022-10-09T22:59:48.569Z,1.83
2022-10-09T23:02:15.108Z,2.00
2022-10-09T23:04:41.471Z,2.20
2022-10-09T23:07:08.026Z,2.47
2022-10-09T23:09:34.444Z,2.03
2022-10-09T23:12:00.914Z,2.00
2022-10-09T23:14:27.679Z,2.03
2022-10-09T23:16:54.094Z,2.03
2022-10-09T23:19:20.540Z,2.28
2022-10-09T23:21:47.188Z,2.00
2022-10-09T23:24:18.003Z,1.85
2022-10-09T23:26:46.350Z,2.00
2022-10-09T23:29:15.648Z,2.00
2022-10-09T23:31:42.299Z,1.83
2022-10-09T23:34:08.806Z,2.10
2022-10-09T23:36:35.454Z,1.90
2022-10-09T23:39:04.712Z,2.35
2022-10-09T23:41:31.164Z,2.33
2022-10-09T23:43:57.729Z,2.47
2022-10-09T23:46:27.579Z,2.35
2022-10-09T23:48:54.830Z,2.30
2022-10-09T23:51:24.384Z,2.22
2022-10-09T23:53:50.807Z,1.73
2022-10-09T23:56:19.590Z,1.88
2022-10-09T23:58:46.863Z,2.05
